KMHL/MHL METAR and TAF weather

Enter ICAO airport designator
Station Type Date Time Source
KMHL METAR 2019/06/26 09:55 UTC NOAA

KMHL 260955Z AUTO 29003KT 10SM CLR 22/20 A3000 RMK AO2 TSNO


Station Type Date Time Source
KMHL Decoded METAR 2019/06/26 09:55 UTC NOAA

Station name not available
Jun 26, 2019 - 05:55 AM EDT / 2019.06.26 0955 UTC
Wind: from the WNW (290 degrees) at 3 MPH (3 KT):0
Visibility: 10 mile(s):0
Sky conditions: clear
Temperature: 71 F (22 C)
Dew Point: 68 F (20 C)
Relative Humidity: 88%
Pressure (altimeter): 30 in. Hg (1015 hPa)
ob: KMHL 260955Z AUTO 29003KT 10SM CLR 22/20 A3000 RMK AO2 TSNO
cycle: 10

Station Type Date Time Source
KMHL TAF UTC NOAA

Error!

Example: see airport list